This is the latest recevied weather packets stored in our database for station/object IU2GFL-13. If no packets are shown the sender has not sent any weather packets the latest 1 day(s).
| Time | Temp. | Humidity | Pressure | Rain* | Wind** | Luminosity | Snow |
|---|---|---|---|---|---|---|---|
| 1777754635 | 17.22° C | 49% | 997.5 hPa | - | - | - | - |
| 1777753430 | 17.22° C | 48% | 997.6 hPa | - | - | - | - |
| 1777752225 | 17.78° C | 46% | 997.6 hPa | - | - | - | - |
| 1777751020 | 18.33° C | 44% | 997.6 hPa | - | - | - | - |
| 1777749815 | 18.33° C | 45% | 997.4 hPa | - | - | - | - |
| 1777748610 | 18.89° C | 42% | 997.3 hPa | - | - | - | - |
| 1777747405 | 20° C | 38% | 997.1 hPa | - | - | - | - |
| 1777744996 | 22.22° C | 34% | 996.9 hPa | - | - | - | - |
| 1777743791 | 22.78° C | 33% | 996.9 hPa | - | - | - | - |
| 1777742586 | 23.33° C | 32% | 997 hPa | - | - | - | - |
| 1777741381 | 24.44° C | 32% | 997 hPa | - | - | - | - |
| 1777740176 | 25° C | 31% | 997.1 hPa | - | - | - | - |
| 1777738972 | 25° C | 30% | 997.2 hPa | - | - | - | - |
| 1777732945 | 26.11° C | 30% | 998.2 hPa | - | - | - | - |
| 1777731736 | 26.11° C | 30% | 998.4 hPa | - | - | - | - |
| 1777730531 | 25.56° C | 30% | 998.7 hPa | - | - | - | - |
| 1777729327 | 25.56° C | 30% | 999.1 hPa | - | - | - | - |
| 1777728122 | 26.11° C | 31% | 999.3 hPa | - | - | - | - |
| 1777726917 | 26.11° C | 31% | 999.6 hPa | - | - | - | - |
| 1777725712 | 26.11° C | 32% | 999.9 hPa | - | - | - | - |
| 1777724507 | 26.11° C | 33% | 1000.2 hPa | - | - | - | - |
| 1777722098 | 25.56° C | 33% | 1000.8 hPa | - | - | - | - |
| 1777720891 | 24.44° C | 33% | 1000.9 hPa | - | - | - | - |
| 1777719685 | 24.44° C | 35% | 1001.4 hPa | - | - | - | - |
| 1777718480 | 24.44° C | 35% | 1001.6 hPa | - | - | - | - |
* Rain since midnight (hover to see other rain measurements)
** Current wind speed in m/s (hover to see current wind gust speed)